sensor_id;sensor_type;location;lat;lon;timestamp;P1;durP1;ratioP1;P2;durP2;ratioP2
34146;SDS011;20423;49.448;9.056;2022-12-04T00:01:32;101.43;;;30.85;;
34146;SDS011;20423;49.448;9.056;2022-12-04T00:03:59;113.68;;;35.60;;
34146;SDS011;20423;49.448;9.056;2022-12-04T00:06:26;102.10;;;33.72;;
34146;SDS011;20423;49.448;9.056;2022-12-04T00:08:52;104.40;;;33.30;;
34146;SDS011;20423;49.448;9.056;2022-12-04T00:11:19;119.63;;;35.90;;
34146;SDS011;20423;49.448;9.056;2022-12-04T00:13:47;96.85;;;33.58;;
34146;SDS011;20423;49.448;9.056;2022-12-04T00:16:14;97.13;;;32.53;;
34146;SDS011;20423;49.448;9.056;2022-12-04T00:18:44;106.55;;;31.80;;
34146;SDS011;20423;49.448;9.056;2022-12-04T00:21:11;103.30;;;34.92;;
34146;SDS011;20423;49.448;9.056;2022-12-04T00:23:38;99.25;;;33.15;;
34146;SDS011;20423;49.448;9.056;2022-12-04T00:26:05;101.95;;;32.58;;
34146;SDS011;20423;49.448;9.056;2022-12-04T00:28:33;98.85;;;32.97;;
34146;SDS011;20423;49.448;9.056;2022-12-04T00:30:59;92.38;;;31.50;;
34146;SDS011;20423;49.448;9.056;2022-12-04T00:33:28;99.75;;;32.35;;
34146;SDS011;20423;49.448;9.056;2022-12-04T00:35:57;112.20;;;32.88;;
34146;SDS011;20423;49.448;9.056;2022-12-04T00:38:24;103.05;;;34.40;;
34146;SDS011;20423;49.448;9.056;2022-12-04T00:40:50;106.78;;;33.42;;
34146;SDS011;20423;49.448;9.056;2022-12-04T00:43:17;109.05;;;32.13;;
34146;SDS011;20423;49.448;9.056;2022-12-04T00:45:43;113.55;;;33.35;;
34146;SDS011;20423;49.448;9.056;2022-12-04T00:48:09;118.18;;;32.35;;
34146;SDS011;20423;49.448;9.056;2022-12-04T00:50:35;115.28;;;31.88;;
34146;SDS011;20423;49.448;9.056;2022-12-04T00:53:01;113.90;;;30.95;;
34146;SDS011;20423;49.448;9.056;2022-12-04T00:55:26;105.57;;;31.25;;
34146;SDS011;20423;49.448;9.056;2022-12-04T00:57:52;139.52;;;32.05;;
34146;SDS011;20423;49.448;9.056;2022-12-04T01:00:18;103.78;;;29.70;;
34146;SDS011;20423;49.448;9.056;2022-12-04T01:03:02;103.97;;;31.17;;
34146;SDS011;20423;49.448;9.056;2022-12-04T01:05:29;96.35;;;31.15;;
34146;SDS011;20423;49.448;9.056;2022-12-04T01:07:55;101.65;;;32.38;;
34146;SDS011;20423;49.448;9.056;2022-12-04T01:10:21;97.82;;;31.38;;
34146;SDS011;20423;49.448;9.056;2022-12-04T01:12:48;85.40;;;28.50;;
34146;SDS011;20423;49.448;9.056;2022-12-04T01:15:15;93.68;;;28.52;;
34146;SDS011;20423;49.448;9.056;2022-12-04T01:17:41;105.13;;;31.38;;
34146;SDS011;20423;49.448;9.056;2022-12-04T01:20:07;98.28;;;31.02;;
34146;SDS011;20423;49.448;9.056;2022-12-04T01:22:33;105.60;;;33.08;;
34146;SDS011;20423;49.448;9.056;2022-12-04T01:24:58;99.95;;;31.08;;
34146;SDS011;20423;49.448;9.056;2022-12-04T01:27:24;87.93;;;28.65;;
34146;SDS011;20423;49.448;9.056;2022-12-04T01:29:50;99.32;;;29.25;;
34146;SDS011;20423;49.448;9.056;2022-12-04T01:32:15;88.63;;;28.48;;
34146;SDS011;20423;49.448;9.056;2022-12-04T01:34:41;92.15;;;28.20;;
34146;SDS011;20423;49.448;9.056;2022-12-04T01:37:07;83.80;;;28.85;;
34146;SDS011;20423;49.448;9.056;2022-12-04T01:39:34;84.55;;;27.48;;
34146;SDS011;20423;49.448;9.056;2022-12-04T01:42:01;79.68;;;27.17;;
34146;SDS011;20423;49.448;9.056;2022-12-04T01:44:28;94.03;;;29.73;;
34146;SDS011;20423;49.448;9.056;2022-12-04T01:46:58;88.40;;;28.65;;
34146;SDS011;20423;49.448;9.056;2022-12-04T01:49:35;83.40;;;28.48;;
34146;SDS011;20423;49.448;9.056;2022-12-04T01:52:11;91.60;;;30.02;;
34146;SDS011;20423;49.448;9.056;2022-12-04T01:54:42;78.90;;;27.30;;
34146;SDS011;20423;49.448;9.056;2022-12-04T01:57:12;89.90;;;28.80;;
34146;SDS011;20423;49.448;9.056;2022-12-04T01:59:44;92.95;;;28.60;;
34146;SDS011;20423;49.448;9.056;2022-12-04T02:02:16;81.40;;;27.15;;
34146;SDS011;20423;49.448;9.056;2022-12-04T02:04:46;74.00;;;24.85;;
34146;SDS011;20423;49.448;9.056;2022-12-04T02:07:12;87.47;;;27.95;;
34146;SDS011;20423;49.448;9.056;2022-12-04T02:09:38;79.82;;;26.42;;
34146;SDS011;20423;49.448;9.056;2022-12-04T02:15:10;79.40;;;28.00;;
34146;SDS011;20423;49.448;9.056;2022-12-04T02:17:52;83.38;;;27.80;;
34146;SDS011;20423;49.448;9.056;2022-12-04T02:20:32;81.78;;;25.60;;
34146;SDS011;20423;49.448;9.056;2022-12-04T02:32:21;88.55;;;25.95;;
34146;SDS011;20423;49.448;9.056;2022-12-04T02:35:41;78.53;;;26.55;;
34146;SDS011;20423;49.448;9.056;2022-12-04T02:37:56;84.28;;;27.27;;
34146;SDS011;20423;49.448;9.056;2022-12-04T02:43:15;92.18;;;28.80;;
34146;SDS011;20423;49.448;9.056;2022-12-04T02:45:45;81.65;;;26.83;;
34146;SDS011;20423;49.448;9.056;2022-12-04T02:48:35;86.38;;;26.40;;
34146;SDS011;20423;49.448;9.056;2022-12-04T02:51:05;92.40;;;29.00;;
34146;SDS011;20423;49.448;9.056;2022-12-04T02:53:33;82.13;;;25.70;;
34146;SDS011;20423;49.448;9.056;2022-12-04T02:56:07;83.68;;;26.05;;
34146;SDS011;20423;49.448;9.056;2022-12-04T02:58:38;101.07;;;28.05;;
34146;SDS011;20423;49.448;9.056;2022-12-04T03:01:09;90.80;;;29.48;;
34146;SDS011;20423;49.448;9.056;2022-12-04T03:03:56;79.18;;;27.88;;
34146;SDS011;20423;49.448;9.056;2022-12-04T03:06:43;79.97;;;28.05;;
34146;SDS011;20423;49.448;9.056;2022-12-04T03:09:14;89.77;;;26.10;;
34146;SDS011;20423;49.448;9.056;2022-12-04T03:11:45;86.75;;;26.38;;
34146;SDS011;20423;49.448;9.056;2022-12-04T03:14:27;76.35;;;26.05;;
34146;SDS011;20423;49.448;9.056;2022-12-04T03:16:59;79.95;;;25.83;;
34146;SDS011;20423;49.448;9.056;2022-12-04T03:19:33;84.30;;;26.02;;
34146;SDS011;20423;49.448;9.056;2022-12-04T03:22:06;80.95;;;26.05;;
34146;SDS011;20423;49.448;9.056;2022-12-04T03:24:39;79.57;;;25.42;;
34146;SDS011;20423;49.448;9.056;2022-12-04T03:27:53;72.35;;;24.90;;
34146;SDS011;20423;49.448;9.056;2022-12-04T03:30:02;87.03;;;26.73;;
34146;SDS011;20423;49.448;9.056;2022-12-04T03:38:17;87.13;;;26.35;;
34146;SDS011;20423;49.448;9.056;2022-12-04T03:43:36;70.40;;;23.50;;
34146;SDS011;20423;49.448;9.056;2022-12-04T03:46:16;69.65;;;22.33;;
34146;SDS011;20423;49.448;9.056;2022-12-04T03:52:02;69.38;;;24.67;;
34146;SDS011;20423;49.448;9.056;2022-12-04T03:54:33;70.00;;;24.08;;
34146;SDS011;20423;49.448;9.056;2022-12-04T03:57:05;69.57;;;24.58;;
34146;SDS011;20423;49.448;9.056;2022-12-04T03:59:42;76.70;;;24.27;;
34146;SDS011;20423;49.448;9.056;2022-12-04T04:02:23;69.13;;;23.55;;
34146;SDS011;20423;49.448;9.056;2022-12-04T04:04:54;71.32;;;23.33;;
34146;SDS011;20423;49.448;9.056;2022-12-04T04:07:23;76.63;;;24.80;;
34146;SDS011;20423;49.448;9.056;2022-12-04T04:09:55;81.63;;;24.73;;
34146;SDS011;20423;49.448;9.056;2022-12-04T04:12:26;77.00;;;24.60;;
34146;SDS011;20423;49.448;9.056;2022-12-04T04:15:00;79.63;;;26.25;;
34146;SDS011;20423;49.448;9.056;2022-12-04T04:17:56;63.90;;;24.27;;
34146;SDS011;20423;49.448;9.056;2022-12-04T04:20:47;77.68;;;25.85;;
34146;SDS011;20423;49.448;9.056;2022-12-04T04:23:38;76.00;;;25.00;;
34146;SDS011;20423;49.448;9.056;2022-12-04T04:26:26;77.88;;;24.48;;
34146;SDS011;20423;49.448;9.056;2022-12-04T04:28:58;78.55;;;25.63;;
34146;SDS011;20423;49.448;9.056;2022-12-04T04:36:52;67.10;;;23.45;;
34146;SDS011;20423;49.448;9.056;2022-12-04T04:39:29;73.13;;;25.63;;
34146;SDS011;20423;49.448;9.056;2022-12-04T04:44:44;65.50;;;24.63;;
34146;SDS011;20423;49.448;9.056;2022-12-04T04:50:04;71.25;;;22.83;;
34146;SDS011;20423;49.448;9.056;2022-12-04T04:52:33;74.13;;;24.15;;
34146;SDS011;20423;49.448;9.056;2022-12-04T04:55:00;71.10;;;22.92;;
34146;SDS011;20423;49.448;9.056;2022-12-04T04:57:31;74.25;;;23.98;;
34146;SDS011;20423;49.448;9.056;2022-12-04T05:00:00;66.68;;;23.52;;
34146;SDS011;20423;49.448;9.056;2022-12-04T05:02:30;71.43;;;22.83;;
34146;SDS011;20423;49.448;9.056;2022-12-04T05:04:57;72.28;;;25.13;;
34146;SDS011;20423;49.448;9.056;2022-12-04T05:07:23;71.75;;;24.08;;
34146;SDS011;20423;49.448;9.056;2022-12-04T05:09:49;59.08;;;22.90;;
34146;SDS011;20423;49.448;9.056;2022-12-04T05:12:14;63.10;;;24.85;;
34146;SDS011;20423;49.448;9.056;2022-12-04T05:14:40;67.38;;;22.05;;
34146;SDS011;20423;49.448;9.056;2022-12-04T05:17:06;64.45;;;22.98;;
34146;SDS011;20423;49.448;9.056;2022-12-04T05:19:32;72.20;;;24.65;;
34146;SDS011;20423;49.448;9.056;2022-12-04T05:22:17;68.53;;;23.60;;
34146;SDS011;20423;49.448;9.056;2022-12-04T05:24:56;69.40;;;25.33;;
34146;SDS011;20423;49.448;9.056;2022-12-04T05:27:23;67.63;;;24.20;;
34146;SDS011;20423;49.448;9.056;2022-12-04T05:29:53;69.38;;;24.73;;
34146;SDS011;20423;49.448;9.056;2022-12-04T05:32:21;65.07;;;22.98;;
34146;SDS011;20423;49.448;9.056;2022-12-04T05:34:49;72.45;;;24.58;;
34146;SDS011;20423;49.448;9.056;2022-12-04T05:37:16;66.88;;;23.45;;
34146;SDS011;20423;49.448;9.056;2022-12-04T05:39:42;74.40;;;22.65;;
34146;SDS011;20423;49.448;9.056;2022-12-04T05:42:07;72.07;;;23.48;;
34146;SDS011;20423;49.448;9.056;2022-12-04T05:44:33;63.80;;;22.77;;
34146;SDS011;20423;49.448;9.056;2022-12-04T05:46:59;67.93;;;23.75;;
34146;SDS011;20423;49.448;9.056;2022-12-04T05:49:27;57.42;;;21.67;;
34146;SDS011;20423;49.448;9.056;2022-12-04T05:51:54;67.90;;;22.85;;
34146;SDS011;20423;49.448;9.056;2022-12-04T05:54:19;75.63;;;23.55;;
34146;SDS011;20423;49.448;9.056;2022-12-04T05:56:45;61.10;;;22.67;;
34146;SDS011;20423;49.448;9.056;2022-12-04T05:59:11;73.90;;;23.67;;
34146;SDS011;20423;49.448;9.056;2022-12-04T06:01:38;75.10;;;23.75;;
34146;SDS011;20423;49.448;9.056;2022-12-04T06:04:04;73.65;;;23.70;;
34146;SDS011;20423;49.448;9.056;2022-12-04T06:06:30;72.45;;;24.95;;
34146;SDS011;20423;49.448;9.056;2022-12-04T06:08:56;65.57;;;21.75;;
34146;SDS011;20423;49.448;9.056;2022-12-04T06:11:24;86.72;;;24.58;;
34146;SDS011;20423;49.448;9.056;2022-12-04T06:13:54;85.28;;;23.83;;
34146;SDS011;20423;49.448;9.056;2022-12-04T06:16:22;78.75;;;26.00;;
34146;SDS011;20423;49.448;9.056;2022-12-04T06:18:51;72.22;;;23.27;;
34146;SDS011;20423;49.448;9.056;2022-12-04T06:21:18;92.18;;;24.90;;
34146;SDS011;20423;49.448;9.056;2022-12-04T06:23:45;73.82;;;24.20;;
34146;SDS011;20423;49.448;9.056;2022-12-04T06:26:11;81.03;;;23.27;;
34146;SDS011;20423;49.448;9.056;2022-12-04T06:28:37;70.95;;;22.92;;
34146;SDS011;20423;49.448;9.056;2022-12-04T06:31:04;79.35;;;26.35;;
34146;SDS011;20423;49.448;9.056;2022-12-04T06:33:31;74.28;;;25.35;;
34146;SDS011;20423;49.448;9.056;2022-12-04T06:36:01;83.25;;;26.42;;
34146;SDS011;20423;49.448;9.056;2022-12-04T06:38:30;80.45;;;25.08;;
34146;SDS011;20423;49.448;9.056;2022-12-04T06:40:56;82.68;;;25.90;;
34146;SDS011;20423;49.448;9.056;2022-12-04T06:43:22;79.15;;;25.08;;
34146;SDS011;20423;49.448;9.056;2022-12-04T06:45:48;88.15;;;24.35;;
34146;SDS011;20423;49.448;9.056;2022-12-04T06:48:23;72.80;;;23.52;;
34146;SDS011;20423;49.448;9.056;2022-12-04T06:50:49;73.70;;;24.48;;
34146;SDS011;20423;49.448;9.056;2022-12-04T06:53:21;81.10;;;25.95;;
34146;SDS011;20423;49.448;9.056;2022-12-04T06:55:47;71.47;;;23.00;;
34146;SDS011;20423;49.448;9.056;2022-12-04T06:58:13;90.18;;;27.15;;
34146;SDS011;20423;49.448;9.056;2022-12-04T07:00:38;100.47;;;28.40;;
34146;SDS011;20423;49.448;9.056;2022-12-04T07:03:04;105.38;;;34.05;;
34146;SDS011;20423;49.448;9.056;2022-12-04T07:05:30;226.60;;;64.07;;
34146;SDS011;20423;49.448;9.056;2022-12-04T07:07:56;94.20;;;34.67;;
34146;SDS011;20423;49.448;9.056;2022-12-04T07:10:21;80.45;;;25.90;;
34146;SDS011;20423;49.448;9.056;2022-12-04T07:12:47;74.85;;;24.33;;
34146;SDS011;20423;49.448;9.056;2022-12-04T07:15:13;77.30;;;25.85;;
34146;SDS011;20423;49.448;9.056;2022-12-04T07:17:39;87.45;;;25.10;;
34146;SDS011;20423;49.448;9.056;2022-12-04T07:20:05;82.15;;;28.80;;
34146;SDS011;20423;49.448;9.056;2022-12-04T07:22:31;72.07;;;22.00;;
34146;SDS011;20423;49.448;9.056;2022-12-04T07:24:57;96.03;;;26.52;;
34146;SDS011;20423;49.448;9.056;2022-12-04T07:27:23;85.93;;;28.88;;
34146;SDS011;20423;49.448;9.056;2022-12-04T07:29:50;80.78;;;24.75;;
34146;SDS011;20423;49.448;9.056;2022-12-04T07:32:17;69.40;;;24.70;;
34146;SDS011;20423;49.448;9.056;2022-12-04T07:34:43;74.35;;;26.10;;
34146;SDS011;20423;49.448;9.056;2022-12-04T07:37:08;75.82;;;24.83;;
34146;SDS011;20423;49.448;9.056;2022-12-04T07:39:34;81.07;;;24.42;;
34146;SDS011;20423;49.448;9.056;2022-12-04T07:42:00;92.13;;;27.42;;
34146;SDS011;20423;49.448;9.056;2022-12-04T07:44:25;72.15;;;25.20;;
34146;SDS011;20423;49.448;9.056;2022-12-04T07:46:51;110.30;;;26.15;;
34146;SDS011;20423;49.448;9.056;2022-12-04T07:49:17;94.15;;;26.88;;
34146;SDS011;20423;49.448;9.056;2022-12-04T07:51:42;83.28;;;25.83;;
34146;SDS011;20423;49.448;9.056;2022-12-04T07:54:08;93.28;;;26.30;;
34146;SDS011;20423;49.448;9.056;2022-12-04T07:56:34;78.80;;;24.42;;
34146;SDS011;20423;49.448;9.056;2022-12-04T07:59:00;76.38;;;25.67;;
34146;SDS011;20423;49.448;9.056;2022-12-04T08:01:26;82.03;;;26.05;;
34146;SDS011;20423;49.448;9.056;2022-12-04T08:03:53;75.97;;;23.75;;
34146;SDS011;20423;49.448;9.056;2022-12-04T08:06:21;88.63;;;27.92;;
34146;SDS011;20423;49.448;9.056;2022-12-04T08:08:48;79.78;;;26.25;;
34146;SDS011;20423;49.448;9.056;2022-12-04T08:11:18;90.35;;;28.70;;
34146;SDS011;20423;49.448;9.056;2022-12-04T08:13:47;89.82;;;29.83;;
34146;SDS011;20423;49.448;9.056;2022-12-04T08:16:13;95.55;;;25.52;;
34146;SDS011;20423;49.448;9.056;2022-12-04T08:18:39;83.78;;;25.92;;
34146;SDS011;20423;49.448;9.056;2022-12-04T08:21:11;79.00;;;24.95;;
34146;SDS011;20423;49.448;9.056;2022-12-04T08:23:39;81.15;;;24.70;;
34146;SDS011;20423;49.448;9.056;2022-12-04T08:26:06;92.53;;;27.55;;
34146;SDS011;20423;49.448;9.056;2022-12-04T08:28:33;82.72;;;28.75;;
34146;SDS011;20423;49.448;9.056;2022-12-04T08:31:03;86.03;;;26.55;;
34146;SDS011;20423;49.448;9.056;2022-12-04T08:33:31;76.00;;;26.48;;
34146;SDS011;20423;49.448;9.056;2022-12-04T08:35:57;69.93;;;26.73;;
34146;SDS011;20423;49.448;9.056;2022-12-04T08:38:23;73.55;;;25.48;;
34146;SDS011;20423;49.448;9.056;2022-12-04T08:40:48;76.20;;;25.40;;
34146;SDS011;20423;49.448;9.056;2022-12-04T08:43:14;74.45;;;25.48;;
34146;SDS011;20423;49.448;9.056;2022-12-04T08:45:40;74.93;;;25.33;;
34146;SDS011;20423;49.448;9.056;2022-12-04T08:48:06;65.30;;;23.40;;
34146;SDS011;20423;49.448;9.056;2022-12-04T08:50:32;66.35;;;22.17;;
34146;SDS011;20423;49.448;9.056;2022-12-04T08:52:58;62.90;;;22.80;;
34146;SDS011;20423;49.448;9.056;2022-12-04T08:55:24;62.50;;;21.90;;
34146;SDS011;20423;49.448;9.056;2022-12-04T08:57:50;72.45;;;23.50;;
34146;SDS011;20423;49.448;9.056;2022-12-04T09:00:17;56.95;;;21.35;;
34146;SDS011;20423;49.448;9.056;2022-12-04T09:02:44;67.30;;;21.63;;
34146;SDS011;20423;49.448;9.056;2022-12-04T09:05:13;67.45;;;22.20;;
34146;SDS011;20423;49.448;9.056;2022-12-04T09:07:38;58.58;;;21.83;;
34146;SDS011;20423;49.448;9.056;2022-12-04T09:10:04;59.60;;;21.35;;
34146;SDS011;20423;49.448;9.056;2022-12-04T09:12:30;59.95;;;21.83;;
34146;SDS011;20423;49.448;9.056;2022-12-04T09:14:56;61.38;;;22.38;;
34146;SDS011;20423;49.448;9.056;2022-12-04T09:17:22;56.45;;;22.77;;
34146;SDS011;20423;49.448;9.056;2022-12-04T09:19:48;57.88;;;22.77;;
34146;SDS011;20423;49.448;9.056;2022-12-04T09:22:14;54.05;;;21.23;;
34146;SDS011;20423;49.448;9.056;2022-12-04T09:24:40;50.83;;;21.58;;
34146;SDS011;20423;49.448;9.056;2022-12-04T09:27:06;47.63;;;20.40;;
34146;SDS011;20423;49.448;9.056;2022-12-04T09:29:32;49.92;;;21.17;;
34146;SDS011;20423;49.448;9.056;2022-12-04T09:31:57;53.50;;;19.77;;
34146;SDS011;20423;49.448;9.056;2022-12-04T09:34:23;56.97;;;20.73;;
34146;SDS011;20423;49.448;9.056;2022-12-04T09:36:49;53.83;;;20.90;;
34146;SDS011;20423;49.448;9.056;2022-12-04T09:39:15;49.47;;;20.75;;
34146;SDS011;20423;49.448;9.056;2022-12-04T09:47:25;54.70;;;21.58;;
34146;SDS011;20423;49.448;9.056;2022-12-04T09:49:56;55.78;;;21.05;;
34146;SDS011;20423;49.448;9.056;2022-12-04T09:55:14;50.22;;;20.23;;
34146;SDS011;20423;49.448;9.056;2022-12-04T09:57:48;56.40;;;22.23;;
34146;SDS011;20423;49.448;9.056;2022-12-04T10:00:17;55.33;;;21.13;;
34146;SDS011;20423;49.448;9.056;2022-12-04T10:02:51;53.58;;;21.90;;
34146;SDS011;20423;49.448;9.056;2022-12-04T10:08:42;47.00;;;19.63;;
34146;SDS011;20423;49.448;9.056;2022-12-04T10:19:28;47.88;;;19.35;;
34146;SDS011;20423;49.448;9.056;2022-12-04T10:22:12;46.70;;;18.85;;
34146;SDS011;20423;49.448;9.056;2022-12-04T10:24:43;40.20;;;18.00;;
34146;SDS011;20423;49.448;9.056;2022-12-04T10:27:17;52.75;;;18.45;;
34146;SDS011;20423;49.448;9.056;2022-12-04T10:30:26;45.35;;;19.15;;
34146;SDS011;20423;49.448;9.056;2022-12-04T10:32:57;54.88;;;21.75;;
34146;SDS011;20423;49.448;9.056;2022-12-04T10:35:43;50.70;;;19.77;;
34146;SDS011;20423;49.448;9.056;2022-12-04T10:38:14;43.45;;;18.63;;
34146;SDS011;20423;49.448;9.056;2022-12-04T10:40:49;58.22;;;19.42;;
34146;SDS011;20423;49.448;9.056;2022-12-04T10:43:53;49.60;;;21.33;;
34146;SDS011;20423;49.448;9.056;2022-12-04T10:46:34;46.20;;;20.00;;
34146;SDS011;20423;49.448;9.056;2022-12-04T10:51:47;43.95;;;19.52;;
34146;SDS011;20423;49.448;9.056;2022-12-04T10:56:59;42.17;;;19.55;;
34146;SDS011;20423;49.448;9.056;2022-12-04T11:02:17;51.33;;;21.63;;
34146;SDS011;20423;49.448;9.056;2022-12-04T11:07:23;38.90;;;18.00;;
34146;SDS011;20423;49.448;9.056;2022-12-04T11:10:00;40.42;;;16.65;;
34146;SDS011;20423;49.448;9.056;2022-12-04T11:12:29;42.50;;;18.02;;
34146;SDS011;20423;49.448;9.056;2022-12-04T11:15:02;36.80;;;17.13;;
34146;SDS011;20423;49.448;9.056;2022-12-04T11:17:31;42.42;;;19.92;;
34146;SDS011;20423;49.448;9.056;2022-12-04T11:19:58;40.95;;;19.13;;
34146;SDS011;20423;49.448;9.056;2022-12-04T11:25:27;39.65;;;18.00;;
34146;SDS011;20423;49.448;9.056;2022-12-04T11:28:00;38.00;;;17.58;;
34146;SDS011;20423;49.448;9.056;2022-12-04T11:32:55;39.47;;;17.83;;
34146;SDS011;20423;49.448;9.056;2022-12-04T11:35:25;41.88;;;19.25;;
34146;SDS011;20423;49.448;9.056;2022-12-04T11:40:33;40.00;;;16.73;;
34146;SDS011;20423;49.448;9.056;2022-12-04T11:43:02;42.33;;;17.13;;
34146;SDS011;20423;49.448;9.056;2022-12-04T11:45:28;35.85;;;16.45;;
34146;SDS011;20423;49.448;9.056;2022-12-04T11:47:54;44.75;;;18.17;;
34146;SDS011;20423;49.448;9.056;2022-12-04T11:50:28;44.47;;;18.10;;
34146;SDS011;20423;49.448;9.056;2022-12-04T11:53:23;46.90;;;19.27;;
34146;SDS011;20423;49.448;9.056;2022-12-04T12:01:49;46.42;;;18.58;;
34146;SDS011;20423;49.448;9.056;2022-12-04T12:30:22;55.25;;;22.58;;
34146;SDS011;20423;49.448;9.056;2022-12-04T12:33:08;58.40;;;21.27;;
34146;SDS011;20423;49.448;9.056;2022-12-04T12:38:34;54.38;;;21.52;;
34146;SDS011;20423;49.448;9.056;2022-12-04T12:41:14;45.97;;;21.02;;
34146;SDS011;20423;49.448;9.056;2022-12-04T12:43:47;48.08;;;20.95;;
34146;SDS011;20423;49.448;9.056;2022-12-04T12:46:21;61.92;;;24.50;;
34146;SDS011;20423;49.448;9.056;2022-12-04T12:49:12;92.18;;;40.50;;
34146;SDS011;20423;49.448;9.056;2022-12-04T12:52:03;71.53;;;26.23;;
34146;SDS011;20423;49.448;9.056;2022-12-04T12:54:49;66.05;;;24.55;;
34146;SDS011;20423;49.448;9.056;2022-12-04T12:57:38;78.95;;;30.73;;
34146;SDS011;20423;49.448;9.056;2022-12-04T13:00:14;59.83;;;25.55;;
34146;SDS011;20423;49.448;9.056;2022-12-04T13:03:01;49.47;;;21.27;;
34146;SDS011;20423;49.448;9.056;2022-12-04T13:05:40;106.07;;;49.47;;
34146;SDS011;20423;49.448;9.056;2022-12-04T13:11:05;67.75;;;28.08;;
34146;SDS011;20423;49.448;9.056;2022-12-04T13:13:58;63.53;;;25.77;;
34146;SDS011;20423;49.448;9.056;2022-12-04T13:18:56;59.85;;;22.48;;
34146;SDS011;20423;49.448;9.056;2022-12-04T13:21:38;68.70;;;23.80;;
34146;SDS011;20423;49.448;9.056;2022-12-04T13:40:52;53.25;;;22.48;;
34146;SDS011;20423;49.448;9.056;2022-12-04T13:46:02;54.08;;;22.83;;
34146;SDS011;20423;49.448;9.056;2022-12-04T13:48:32;62.88;;;22.40;;
34146;SDS011;20423;49.448;9.056;2022-12-04T13:51:05;64.55;;;22.27;;
34146;SDS011;20423;49.448;9.056;2022-12-04T13:53:37;50.95;;;21.70;;
34146;SDS011;20423;49.448;9.056;2022-12-04T13:56:04;56.88;;;22.65;;
34146;SDS011;20423;49.448;9.056;2022-12-04T13:58:32;59.10;;;23.65;;
34146;SDS011;20423;49.448;9.056;2022-12-04T14:01:00;82.97;;;23.95;;
34146;SDS011;20423;49.448;9.056;2022-12-04T14:03:48;59.35;;;22.52;;
34146;SDS011;20423;49.448;9.056;2022-12-04T14:06:23;55.88;;;21.63;;
34146;SDS011;20423;49.448;9.056;2022-12-04T14:08:53;53.75;;;20.10;;
34146;SDS011;20423;49.448;9.056;2022-12-04T14:11:24;52.92;;;21.33;;
34146;SDS011;20423;49.448;9.056;2022-12-04T14:13:52;57.95;;;22.98;;
34146;SDS011;20423;49.448;9.056;2022-12-04T14:18:58;59.88;;;22.70;;
34146;SDS011;20423;49.448;9.056;2022-12-04T14:21:36;62.85;;;25.83;;
34146;SDS011;20423;49.448;9.056;2022-12-04T14:24:16;63.67;;;26.05;;
34146;SDS011;20423;49.448;9.056;2022-12-04T14:27:28;60.60;;;26.95;;
34146;SDS011;20423;49.448;9.056;2022-12-04T14:30:00;57.72;;;24.13;;
34146;SDS011;20423;49.448;9.056;2022-12-04T14:32:27;64.60;;;23.63;;
34146;SDS011;20423;49.448;9.056;2022-12-04T14:34:57;83.45;;;28.83;;
34146;SDS011;20423;49.448;9.056;2022-12-04T14:37:33;78.93;;;27.42;;
34146;SDS011;20423;49.448;9.056;2022-12-04T14:40:02;60.67;;;24.38;;
34146;SDS011;20423;49.448;9.056;2022-12-04T14:42:40;63.42;;;25.98;;
34146;SDS011;20423;49.448;9.056;2022-12-04T14:51:16;57.42;;;22.27;;
34146;SDS011;20423;49.448;9.056;2022-12-04T14:59:22;102.07;;;33.88;;
34146;SDS011;20423;49.448;9.056;2022-12-04T15:01:51;92.82;;;33.97;;
34146;SDS011;20423;49.448;9.056;2022-12-04T15:04:24;63.47;;;22.67;;
34146;SDS011;20423;49.448;9.056;2022-12-04T15:06:53;179.73;;;26.58;;
34146;SDS011;20423;49.448;9.056;2022-12-04T15:09:20;130.43;;;27.63;;
34146;SDS011;20423;49.448;9.056;2022-12-04T15:12:39;54.13;;;21.00;;
34146;SDS011;20423;49.448;9.056;2022-12-04T15:17:59;209.35;;;32.55;;
34146;SDS011;20423;49.448;9.056;2022-12-04T15:20:26;216.68;;;29.60;;
34146;SDS011;20423;49.448;9.056;2022-12-04T15:22:54;105.70;;;27.48;;
34146;SDS011;20423;49.448;9.056;2022-12-04T15:25:27;127.47;;;24.85;;
34146;SDS011;20423;49.448;9.056;2022-12-04T15:28:08;56.95;;;21.17;;
34146;SDS011;20423;49.448;9.056;2022-12-04T15:30:38;79.10;;;20.73;;
34146;SDS011;20423;49.448;9.056;2022-12-04T15:33:08;107.53;;;22.98;;
34146;SDS011;20423;49.448;9.056;2022-12-04T15:35:41;167.25;;;28.45;;
34146;SDS011;20423;49.448;9.056;2022-12-04T15:38:12;138.73;;;25.10;;
34146;SDS011;20423;49.448;9.056;2022-12-04T15:40:48;57.03;;;23.02;;
34146;SDS011;20423;49.448;9.056;2022-12-04T15:43:15;92.20;;;23.45;;
34146;SDS011;20423;49.448;9.056;2022-12-04T15:45:46;92.05;;;22.65;;
34146;SDS011;20423;49.448;9.056;2022-12-04T15:48:21;81.75;;;21.88;;
34146;SDS011;20423;49.448;9.056;2022-12-04T15:50:54;55.90;;;20.88;;
34146;SDS011;20423;49.448;9.056;2022-12-04T15:53:23;69.88;;;23.73;;
34146;SDS011;20423;49.448;9.056;2022-12-04T15:55:56;59.40;;;21.48;;
34146;SDS011;20423;49.448;9.056;2022-12-04T15:58:28;105.60;;;23.45;;
34146;SDS011;20423;49.448;9.056;2022-12-04T16:00:58;100.57;;;22.75;;
34146;SDS011;20423;49.448;9.056;2022-12-04T16:03:28;60.30;;;23.60;;
34146;SDS011;20423;49.448;9.056;2022-12-04T16:08:40;81.55;;;23.42;;
34146;SDS011;20423;49.448;9.056;2022-12-04T16:11:21;101.00;;;26.50;;
34146;SDS011;20423;49.448;9.056;2022-12-04T16:14:03;88.00;;;25.15;;
34146;SDS011;20423;49.448;9.056;2022-12-04T16:16:38;84.30;;;26.05;;
34146;SDS011;20423;49.448;9.056;2022-12-04T16:19:10;73.78;;;26.52;;
34146;SDS011;20423;49.448;9.056;2022-12-04T16:21:41;87.88;;;26.70;;
34146;SDS011;20423;49.448;9.056;2022-12-04T16:24:08;75.38;;;25.40;;
34146;SDS011;20423;49.448;9.056;2022-12-04T16:26:36;88.90;;;27.08;;
34146;SDS011;20423;49.448;9.056;2022-12-04T16:29:01;76.90;;;25.05;;
34146;SDS011;20423;49.448;9.056;2022-12-04T16:31:27;86.53;;;26.90;;
34146;SDS011;20423;49.448;9.056;2022-12-04T16:33:53;70.93;;;25.15;;
34146;SDS011;20423;49.448;9.056;2022-12-04T16:36:37;75.82;;;25.73;;
34146;SDS011;20423;49.448;9.056;2022-12-04T16:39:04;79.38;;;25.90;;
34146;SDS011;20423;49.448;9.056;2022-12-04T16:41:30;87.55;;;26.08;;
34146;SDS011;20423;49.448;9.056;2022-12-04T16:43:56;84.88;;;26.42;;
34146;SDS011;20423;49.448;9.056;2022-12-04T16:46:25;104.18;;;25.20;;
34146;SDS011;20423;49.448;9.056;2022-12-04T16:48:51;84.28;;;25.73;;
34146;SDS011;20423;49.448;9.056;2022-12-04T16:51:19;76.78;;;25.77;;
34146;SDS011;20423;49.448;9.056;2022-12-04T16:53:47;72.70;;;26.92;;
34146;SDS011;20423;49.448;9.056;2022-12-04T16:56:13;91.43;;;24.23;;
34146;SDS011;20423;49.448;9.056;2022-12-04T16:58:39;80.50;;;25.70;;
34146;SDS011;20423;49.448;9.056;2022-12-04T17:01:05;72.97;;;24.73;;
34146;SDS011;20423;49.448;9.056;2022-12-04T17:03:52;69.70;;;24.52;;
34146;SDS011;20423;49.448;9.056;2022-12-04T17:06:18;77.28;;;25.90;;
34146;SDS011;20423;49.448;9.056;2022-12-04T17:08:44;89.18;;;28.25;;
34146;SDS011;20423;49.448;9.056;2022-12-04T17:11:11;131.38;;;28.58;;
34146;SDS011;20423;49.448;9.056;2022-12-04T17:13:38;379.85;;;38.75;;
34146;SDS011;20423;49.448;9.056;2022-12-04T17:16:03;125.45;;;27.10;;
34146;SDS011;20423;49.448;9.056;2022-12-04T17:18:29;196.07;;;34.28;;